createdAt,value
2019-05-15T00:01:08.846Z,0.53
2019-05-15T00:03:40.365Z,0.45
2019-05-15T00:06:11.558Z,0.60
2019-05-15T00:08:42.938Z,0.40
2019-05-15T00:11:14.628Z,0.78
2019-05-15T00:13:48.372Z,0.33
2019-05-15T00:16:19.423Z,0.60
2019-05-15T00:18:51.174Z,0.40
2019-05-15T00:21:23.031Z,0.50
2019-05-15T00:23:54.385Z,0.33
2019-05-15T00:26:25.771Z,0.50
2019-05-15T00:29:09.478Z,0.40
2019-05-15T00:31:30.233Z,0.45
2019-05-15T00:34:01.500Z,0.40
2019-05-15T00:36:34.726Z,0.50
2019-05-15T00:39:08.447Z,0.40
2019-05-15T00:41:50.327Z,0.50
2019-05-15T00:44:13.280Z,0.20
2019-05-15T00:46:44.921Z,0.50
2019-05-15T00:49:14.096Z,0.30
2019-05-15T00:51:48.476Z,0.40
2019-05-15T00:54:19.732Z,0.40
2019-05-15T00:56:51.446Z,0.45
2019-05-15T00:59:26.719Z,0.40
2019-05-15T01:01:56.165Z,0.62
2019-05-15T01:04:28.813Z,0.50
2019-05-15T01:07:00.349Z,0.60
2019-05-15T01:09:33.372Z,0.60
2019-05-15T01:12:05.174Z,0.60
2019-05-15T01:14:38.534Z,0.70
2019-05-15T01:17:10.209Z,0.80
2019-05-15T01:19:42.004Z,0.60
2019-05-15T01:22:13.849Z,0.70
2019-05-15T01:24:45.605Z,0.80
2019-05-15T01:27:18.416Z,0.80
2019-05-15T01:29:50.145Z,0.93
2019-05-15T01:32:21.853Z,0.80
2019-05-15T01:34:53.419Z,0.85
2019-05-15T01:37:25.170Z,0.90
2019-05-15T01:39:58.150Z,0.80
2019-05-15T01:42:29.971Z,0.82
2019-05-15T01:45:01.596Z,0.80
2019-05-15T01:47:33.155Z,1.17
2019-05-15T01:50:04.462Z,0.80
2019-05-15T01:52:38.677Z,1.10
2019-05-15T01:55:09.847Z,1.10
2019-05-15T01:57:41.430Z,1.10
2019-05-15T02:00:13.054Z,1.35
2019-05-15T02:02:44.590Z,1.20
2019-05-15T02:05:18.695Z,1.07
2019-05-15T02:07:49.624Z,1.10
2019-05-15T02:10:21.151Z,1.10
2019-05-15T02:12:52.538Z,1.32
2019-05-15T02:15:24.146Z,1.00
2019-05-15T02:17:55.385Z,1.20
2019-05-15T02:20:29.049Z,0.80
2019-05-15T02:23:00.350Z,0.70
2019-05-15T02:25:32.222Z,0.85
2019-05-15T02:28:04.198Z,0.75
2019-05-15T02:30:39.650Z,1.00
2019-05-15T02:33:10.789Z,0.88
2019-05-15T02:35:42.169Z,1.10
2019-05-15T02:38:15.530Z,0.93
2019-05-15T02:40:49.355Z,0.80
2019-05-15T02:43:20.190Z,0.90
2019-05-15T02:45:51.647Z,1.00
2019-05-15T02:48:22.933Z,0.90
2019-05-15T02:50:54.631Z,1.30
2019-05-15T02:53:29.610Z,1.20
2019-05-15T02:56:00.304Z,1.37
2019-05-15T02:58:31.966Z,1.30
2019-05-15T03:01:03.596Z,1.32
2019-05-15T03:03:34.984Z,1.47
2019-05-15T03:06:09.654Z,1.50
2019-05-15T03:08:40.228Z,1.85
2019-05-15T03:11:12.024Z,1.65
2019-05-15T03:13:43.681Z,1.60
2019-05-15T03:16:15.474Z,2.20
2019-05-15T03:18:50.185Z,2.10
2019-05-15T03:21:19.891Z,2.15
2019-05-15T03:23:51.491Z,2.35
2019-05-15T03:26:23.060Z,2.45
2019-05-15T03:28:54.291Z,2.52
2019-05-15T03:31:43.549Z,2.60
2019-05-15T03:34:03.084Z,2.67
2019-05-15T03:36:32.412Z,2.50
2019-05-15T03:39:05.064Z,2.55
2019-05-15T03:41:39.289Z,2.30
2019-05-15T03:44:09.838Z,2.42
2019-05-15T03:46:41.359Z,2.85
2019-05-15T03:49:12.936Z,2.72
2019-05-15T03:51:45.850Z,2.80
2019-05-15T03:54:18.973Z,2.50
2019-05-15T03:56:50.779Z,2.67
2019-05-15T03:59:23.258Z,2.77
2019-05-15T04:01:54.813Z,4.03
2019-05-15T04:04:29.468Z,3.40
2019-05-15T04:06:59.748Z,2.90
2019-05-15T04:09:31.124Z,2.77
2019-05-15T04:12:02.265Z,2.50
2019-05-15T04:14:33.830Z,2.50
2019-05-15T04:17:08.865Z,2.55
2019-05-15T04:19:39.397Z,2.90
2019-05-15T04:22:10.965Z,2.70
2019-05-15T04:24:43.278Z,2.92
2019-05-15T04:27:14.932Z,3.30
2019-05-15T04:29:49.171Z,3.33
2019-05-15T04:32:20.163Z,3.47
2019-05-15T04:34:51.741Z,3.20
2019-05-15T04:37:23.338Z,3.22
2019-05-15T04:39:55.943Z,3.58
2019-05-15T04:42:29.880Z,3.65
2019-05-15T04:45:00.246Z,3.42
2019-05-15T04:47:32.584Z,3.83
2019-05-15T04:50:03.678Z,3.50
2019-05-15T04:52:34.994Z,3.77
2019-05-15T04:55:09.684Z,3.50
2019-05-15T04:57:40.408Z,3.52
2019-05-15T05:00:12.796Z,3.72
2019-05-15T05:02:44.037Z,3.70
2019-05-15T05:05:15.389Z,4.03
2019-05-15T05:07:49.103Z,3.72
2019-05-15T05:10:19.724Z,3.17
2019-05-15T05:12:51.169Z,3.40
2019-05-15T05:15:22.777Z,3.67
2019-05-15T05:17:53.982Z,3.40
2019-05-15T05:20:25.515Z,3.27
2019-05-15T05:22:58.359Z,3.27
2019-05-15T05:25:29.963Z,4.20
2019-05-15T05:28:01.367Z,3.72
2019-05-15T05:30:32.710Z,3.92
2019-05-15T05:33:04.626Z,3.42
2019-05-15T05:35:38.755Z,5.80
2019-05-15T05:38:10.233Z,4.50
2019-05-15T05:40:42.149Z,3.60
2019-05-15T05:43:13.697Z,3.55
2019-05-15T05:45:45.184Z,3.25
2019-05-15T05:48:18.699Z,3.50
2019-05-15T05:50:50.256Z,3.60
2019-05-15T05:53:21.875Z,2.75
2019-05-15T05:55:53.711Z,3.05
2019-05-15T05:58:25.479Z,3.08
2019-05-15T06:00:58.606Z,2.80
2019-05-15T06:03:31.248Z,2.95
2019-05-15T06:06:02.667Z,3.70
2019-05-15T06:08:34.212Z,3.33
2019-05-15T06:11:05.367Z,2.80
2019-05-15T06:13:38.232Z,2.65
2019-05-15T06:16:10.955Z,2.98
2019-05-15T06:18:42.286Z,2.95
2019-05-15T06:21:13.855Z,3.10
2019-05-15T06:23:48.417Z,2.77
2019-05-15T06:26:19.594Z,2.30
2019-05-15T06:28:50.955Z,2.40
2019-05-15T06:31:22.002Z,2.80
2019-05-15T06:33:53.651Z,2.45
2019-05-15T06:36:25.197Z,2.40
2019-05-15T06:38:58.601Z,2.62
2019-05-15T06:41:29.627Z,2.52
2019-05-15T06:44:00.885Z,2.80
2019-05-15T06:46:31.948Z,2.50
2019-05-15T06:49:03.421Z,3.00
2019-05-15T06:51:34.814Z,2.85
2019-05-15T06:54:08.551Z,2.85
2019-05-15T06:56:39.554Z,2.50
2019-05-15T06:59:10.463Z,2.93
2019-05-15T07:01:41.493Z,2.80
2019-05-15T07:04:12.603Z,2.50
2019-05-15T07:06:43.649Z,2.60
2019-05-15T07:09:15.100Z,2.47
2019-05-15T07:11:48.320Z,2.30
2019-05-15T07:14:19.267Z,2.43
2019-05-15T07:16:50.273Z,2.50
2019-05-15T07:19:21.138Z,3.00
2019-05-15T07:21:52.763Z,2.93
2019-05-15T07:24:23.786Z,2.60
2019-05-15T07:26:54.686Z,2.67
2019-05-15T07:29:26.154Z,2.70
2019-05-15T07:31:58.558Z,3.47
2019-05-15T07:34:29.677Z,3.00
2019-05-15T07:37:00.958Z,3.27
2019-05-15T07:39:32.551Z,2.73
2019-05-15T07:42:03.849Z,3.23
2019-05-15T07:44:35.165Z,3.43
2019-05-15T07:47:08.738Z,3.40
2019-05-15T07:49:39.406Z,3.30
2019-05-15T07:52:10.454Z,3.23
2019-05-15T07:54:41.468Z,3.17
2019-05-15T07:57:12.525Z,3.50
2019-05-15T07:59:43.483Z,3.07
2019-05-15T08:02:14.582Z,3.17
2019-05-15T08:04:48.126Z,3.27
2019-05-15T08:07:18.854Z,3.40
2019-05-15T08:09:49.957Z,3.00
2019-05-15T08:12:21.065Z,3.17
2019-05-15T08:14:52.050Z,3.20
2019-05-15T08:17:23.100Z,3.40
2019-05-15T08:19:54.376Z,2.97
2019-05-15T08:22:28.327Z,3.70
2019-05-15T08:24:59.330Z,3.83
2019-05-15T08:27:30.345Z,3.40
2019-05-15T08:30:01.781Z,3.53
2019-05-15T08:32:33.328Z,3.70
2019-05-15T08:35:05.161Z,3.90
2019-05-15T08:37:38.450Z,4.00
2019-05-15T08:40:10.250Z,4.63
2019-05-15T08:42:42.162Z,3.70
2019-05-15T08:45:13.289Z,4.43
2019-05-15T08:47:44.492Z,5.57
2019-05-15T08:50:18.249Z,4.93
2019-05-15T08:52:49.198Z,3.77
2019-05-15T08:55:20.336Z,3.90
2019-05-15T08:57:55.602Z,4.40
2019-05-15T09:00:24.380Z,4.50
2019-05-15T09:02:58.162Z,4.53
2019-05-15T09:05:30.384Z,4.40
2019-05-15T09:08:02.448Z,3.77
2019-05-15T09:10:38.293Z,3.67
2019-05-15T09:13:09.560Z,4.63
2019-05-15T09:15:40.778Z,4.20
2019-05-15T09:18:15.956Z,4.20
2019-05-15T09:20:44.879Z,4.17
2019-05-15T09:23:19.084Z,4.27
2019-05-15T09:25:49.867Z,4.90
2019-05-15T09:28:20.933Z,4.80
2019-05-15T09:30:52.005Z,5.27
2019-05-15T09:33:24.256Z,4.40
2019-05-15T09:35:55.293Z,26.70
2019-05-15T09:38:28.673Z,6.17
2019-05-15T09:40:59.309Z,7.20
2019-05-15T09:43:30.397Z,5.97
2019-05-15T09:46:01.573Z,5.37
2019-05-15T09:48:32.946Z,5.47
2019-05-15T09:51:04.018Z,5.67
2019-05-15T09:53:35.436Z,5.60
2019-05-15T09:56:08.089Z,5.43
2019-05-15T09:58:39.302Z,4.43
2019-05-15T10:01:10.379Z,4.60
2019-05-15T10:03:44.511Z,4.63
2019-05-15T10:06:15.250Z,4.73
2019-05-15T10:08:49.058Z,5.03
2019-05-15T10:11:20.038Z,5.27
2019-05-15T10:13:51.550Z,4.50
2019-05-15T10:16:22.802Z,5.27
2019-05-15T10:18:54.027Z,5.10
2019-05-15T10:21:29.632Z,5.83
2019-05-15T10:23:59.180Z,6.00
2019-05-15T10:26:30.318Z,5.80
2019-05-15T10:29:01.593Z,6.00
2019-05-15T10:31:32.963Z,5.00
2019-05-15T10:34:04.142Z,4.90
2019-05-15T10:36:35.309Z,5.40
2019-05-15T10:39:08.461Z,4.67
2019-05-15T10:41:39.670Z,5.63
2019-05-15T10:44:10.704Z,6.10
2019-05-15T10:46:41.742Z,4.90
2019-05-15T10:49:12.759Z,4.67
2019-05-15T10:51:45.012Z,5.30
2019-05-15T10:54:15.922Z,6.07
2019-05-15T10:56:47.175Z,4.83
2019-05-15T10:59:18.443Z,5.80
2019-05-15T11:01:49.465Z,4.80
2019-05-15T11:04:20.585Z,5.37
2019-05-15T11:06:51.520Z,4.63
2019-05-15T11:09:22.580Z,5.77
2019-05-15T11:11:53.777Z,6.07
2019-05-15T11:14:24.833Z,4.87
2019-05-15T11:16:58.806Z,6.03
2019-05-15T11:19:35.490Z,5.60
2019-05-15T11:22:01.330Z,6.10
2019-05-15T11:24:32.605Z,5.93
2019-05-15T11:27:03.851Z,5.57
2019-05-15T11:29:34.728Z,5.87
2019-05-15T11:32:05.999Z,4.73
2019-05-15T11:34:38.294Z,5.07
2019-05-15T11:37:09.834Z,4.80
2019-05-15T11:39:46.044Z,6.43
2019-05-15T11:42:14.842Z,6.20
2019-05-15T11:44:48.406Z,5.70
2019-05-15T11:47:19.579Z,6.33
2019-05-15T11:49:50.879Z,5.80
2019-05-15T11:52:22.222Z,6.37
2019-05-15T11:54:53.391Z,7.33
2019-05-15T11:57:37.319Z,6.43
2019-05-15T11:59:59.506Z,6.37
2019-05-15T12:02:29.986Z,6.10
2019-05-15T12:05:02.065Z,7.23
2019-05-15T12:07:33.017Z,7.37
2019-05-15T12:10:04.209Z,7.43
2019-05-15T12:12:35.354Z,6.57
2019-05-15T12:15:08.011Z,6.83
2019-05-15T12:17:39.378Z,7.70
2019-05-15T12:20:10.992Z,7.23
2019-05-15T12:22:42.143Z,7.40
2019-05-15T12:25:13.611Z,8.13
2019-05-15T12:27:44.664Z,8.97
2019-05-15T12:30:16.028Z,8.63
2019-05-15T12:35:20.718Z,8.50
2019-05-15T12:37:51.538Z,8.57
2019-05-15T12:39:23.745Z,8.93
2019-05-15T13:00:46.250Z,10.80
2019-05-15T13:03:18.246Z,11.47
2019-05-15T13:05:49.361Z,12.83
2019-05-15T13:08:20.342Z,12.47
2019-05-15T13:10:51.409Z,12.23
2019-05-15T13:13:22.543Z,13.37
2019-05-15T13:15:53.696Z,13.00
2019-05-15T13:18:24.828Z,14.07
2019-05-15T13:20:56.902Z,14.37
2019-05-15T13:23:28.828Z,13.33
2019-05-15T13:26:00.029Z,15.20
2019-05-15T13:28:31.578Z,15.47
2019-05-15T13:31:02.894Z,14.23
2019-05-15T13:33:34.219Z,16.47
2019-05-15T13:36:05.440Z,14.27
2019-05-15T13:38:38.162Z,13.73
2019-05-15T13:41:09.630Z,14.17
2019-05-15T13:43:40.820Z,16.67
2019-05-15T13:46:12.082Z,15.43
2019-05-15T13:48:43.206Z,14.73
2019-05-15T13:51:14.350Z,14.67
2019-05-15T13:53:45.358Z,17.43
2019-05-15T13:56:18.221Z,15.90
2019-05-15T13:58:49.424Z,15.90
2019-05-15T14:01:20.776Z,17.77
2019-05-15T14:03:53.289Z,15.57
2019-05-15T14:06:24.504Z,16.07
2019-05-15T14:08:57.963Z,16.57
2019-05-15T14:11:31.066Z,17.03
2019-05-15T14:14:01.320Z,17.93
2019-05-15T14:16:32.407Z,17.60
2019-05-15T14:19:04.702Z,18.03
2019-05-15T14:21:37.944Z,19.07
2019-05-15T14:24:09.174Z,20.10
2019-05-15T14:26:40.132Z,20.57
2019-05-15T14:29:11.000Z,21.87
2019-05-15T14:31:43.120Z,19.80
2019-05-15T14:34:14.358Z,23.73
2019-05-15T14:36:45.201Z,20.73
2019-05-15T14:39:16.452Z,17.47
2019-05-15T14:41:49.193Z,19.77
2019-05-15T14:44:21.643Z,16.27
2019-05-15T14:46:52.921Z,11.60
2019-05-15T14:49:24.083Z,11.47
2019-05-15T14:52:07.683Z,8.00
2019-05-15T14:54:28.997Z,8.47
2019-05-15T14:57:00.163Z,7.17
2019-05-15T14:59:31.137Z,6.30
2019-05-15T15:02:03.275Z,5.73
2019-05-15T15:04:34.315Z,6.73
2019-05-15T15:07:05.444Z,7.23
2019-05-15T15:09:36.427Z,6.63
2019-05-15T15:12:08.267Z,6.37
2019-05-15T15:14:40.214Z,6.53
2019-05-15T15:17:11.089Z,7.60
2019-05-15T15:19:42.208Z,7.90
2019-05-15T15:22:13.461Z,10.73
2019-05-15T15:24:44.571Z,8.50
2019-05-15T15:27:15.938Z,7.93
2019-05-15T15:29:48.309Z,7.33
2019-05-15T15:32:19.724Z,7.37
2019-05-15T15:34:50.741Z,7.37
2019-05-15T15:37:22.277Z,7.50
2019-05-15T15:39:53.666Z,8.77
2019-05-15T15:42:24.963Z,8.23
2019-05-15T15:44:58.082Z,7.50
2019-05-15T15:47:29.127Z,8.90
2019-05-15T15:50:00.328Z,8.00
2019-05-15T15:52:31.713Z,8.53
2019-05-15T15:55:02.850Z,8.90
2019-05-15T15:57:34.291Z,9.23
2019-05-15T16:00:05.688Z,9.43
2019-05-15T16:02:40.653Z,9.60
2019-05-15T16:05:10.531Z,9.83
2019-05-15T16:07:43.535Z,10.00
2019-05-15T16:10:15.173Z,10.63
2019-05-15T16:12:46.453Z,9.73
2019-05-15T16:15:18.202Z,10.67
2019-05-15T16:17:49.641Z,12.13
2019-05-15T16:20:20.769Z,12.20
2019-05-15T16:22:52.465Z,12.20
2019-05-15T16:25:23.652Z,12.00
2019-05-15T16:27:55.137Z,12.33
2019-05-15T16:30:28.183Z,15.27
2019-05-15T16:32:59.748Z,12.33
2019-05-15T16:35:31.154Z,12.73
2019-05-15T16:38:02.200Z,13.33
2019-05-15T16:40:33.273Z,12.97
2019-05-15T16:43:04.334Z,12.53
2019-05-15T16:45:38.574Z,13.83
2019-05-15T16:48:09.470Z,14.13
2019-05-15T16:50:40.669Z,12.77
2019-05-15T16:53:11.948Z,12.73
2019-05-15T16:55:43.241Z,12.63
2019-05-15T16:58:14.874Z,11.87
2019-05-15T17:00:45.962Z,10.33
2019-05-15T17:03:18.449Z,10.00
2019-05-15T17:05:49.820Z,10.20
2019-05-15T17:08:22.066Z,9.87
2019-05-15T17:10:53.470Z,9.37
2019-05-15T17:13:24.641Z,9.40
2019-05-15T17:15:58.266Z,11.53
2019-05-15T17:18:29.403Z,11.73
2019-05-15T17:21:00.796Z,10.27
2019-05-15T17:23:31.984Z,8.33
2019-05-15T17:26:03.286Z,9.53
2019-05-15T17:28:34.425Z,12.10
2019-05-15T17:31:05.456Z,8.37
2019-05-15T17:33:38.084Z,8.07
2019-05-15T17:36:09.526Z,8.10
2019-05-15T17:38:40.841Z,8.37
2019-05-15T17:41:12.665Z,8.27
2019-05-15T17:43:43.651Z,7.70
2019-05-15T17:46:14.990Z,6.80
2019-05-15T17:48:54.062Z,6.83
2019-05-15T17:51:19.594Z,7.30
2019-05-15T17:53:51.107Z,6.20
2019-05-15T17:56:21.977Z,6.60
2019-05-15T17:58:54.237Z,7.30
2019-05-15T18:01:28.048Z,10.70
2019-05-15T18:03:59.425Z,6.37
2019-05-15T18:06:30.649Z,7.83
2019-05-15T18:09:01.523Z,7.77
2019-05-15T18:11:34.087Z,7.57
2019-05-15T18:14:05.329Z,6.30
2019-05-15T18:16:38.140Z,6.13
2019-05-15T18:19:09.100Z,7.00
2019-05-15T18:21:41.596Z,8.63
2019-05-15T18:24:12.563Z,6.90
2019-05-15T18:26:43.409Z,6.23
2019-05-15T18:29:14.724Z,6.20
2019-05-15T18:31:47.899Z,6.57
2019-05-15T18:34:19.098Z,7.37
2019-05-15T18:36:50.533Z,7.60
2019-05-15T18:39:21.642Z,7.30
2019-05-15T18:41:52.931Z,6.67
2019-05-15T18:44:24.136Z,7.60
2019-05-15T18:46:55.046Z,8.73
2019-05-15T18:49:28.378Z,8.17
2019-05-15T18:51:59.085Z,9.77
2019-05-15T18:54:30.278Z,8.33
2019-05-15T18:57:01.299Z,9.20
2019-05-15T18:59:32.644Z,8.30
2019-05-15T19:02:04.093Z,10.07
2019-05-15T19:04:34.948Z,9.30
2019-05-15T19:07:08.701Z,8.77
2019-05-15T19:09:39.238Z,9.00
2019-05-15T19:12:10.705Z,12.37
2019-05-15T19:14:41.813Z,9.57
2019-05-15T19:17:12.869Z,8.70
2019-05-15T19:19:43.975Z,9.00
2019-05-15T19:22:15.188Z,16.70
2019-05-15T19:24:46.592Z,10.67
2019-05-15T19:27:19.349Z,8.33
2019-05-15T19:29:50.453Z,8.40
2019-05-15T19:32:21.627Z,8.50
2019-05-15T19:34:53.046Z,9.10
2019-05-15T19:37:24.225Z,9.53
2019-05-15T19:39:55.339Z,9.87
2019-05-15T19:42:28.557Z,9.40
2019-05-15T19:44:59.401Z,9.33
2019-05-15T19:47:31.722Z,10.20
2019-05-15T19:50:03.074Z,10.10
2019-05-15T19:52:35.575Z,19.50
2019-05-15T19:55:08.875Z,10.90
2019-05-15T19:57:40.278Z,10.27
2019-05-15T20:00:12.679Z,9.60
2019-05-15T20:02:44.396Z,9.90
2019-05-15T20:05:18.179Z,8.60
2019-05-15T20:07:49.304Z,10.20
2019-05-15T20:10:20.603Z,9.93
2019-05-15T20:12:51.744Z,10.03
2019-05-15T20:15:22.948Z,11.80
2019-05-15T20:17:54.217Z,9.70
2019-05-15T20:20:28.029Z,10.43
2019-05-15T20:23:00.131Z,10.77
2019-05-15T20:25:31.561Z,10.37
2019-05-15T20:28:03.021Z,10.23
2019-05-15T20:30:34.825Z,10.30
2019-05-15T20:33:08.894Z,11.40
2019-05-15T20:35:40.234Z,11.23
2019-05-15T20:38:11.453Z,11.17
2019-05-15T20:40:43.704Z,11.50
2019-05-15T20:43:14.930Z,15.83
2019-05-15T20:45:48.291Z,14.60
2019-05-15T20:48:18.843Z,15.40
2019-05-15T20:50:50.254Z,16.57
2019-05-15T20:53:21.452Z,18.07
2019-05-15T20:55:52.704Z,18.07
2019-05-15T20:58:23.711Z,16.83
2019-05-15T21:00:54.757Z,17.00
2019-05-15T21:03:25.920Z,18.53
2019-05-15T21:05:57.747Z,17.57
2019-05-15T21:08:30.117Z,17.23
2019-05-15T21:11:01.478Z,18.33
2019-05-15T21:13:32.510Z,19.43
2019-05-15T21:16:03.504Z,20.97
2019-05-15T21:18:34.325Z,25.90
2019-05-15T21:21:10.199Z,29.03
2019-05-15T21:23:38.799Z,21.93
2019-05-15T21:26:11.098Z,18.37
2019-05-15T21:28:42.428Z,17.07
2019-05-15T21:31:13.868Z,19.73
2019-05-15T21:33:45.102Z,18.70
2019-05-15T21:36:16.299Z,16.30
2019-05-15T21:38:48.035Z,16.13
2019-05-15T21:41:19.448Z,15.50
2019-05-15T21:43:50.965Z,20.10
2019-05-15T21:46:22.827Z,16.57
2019-05-15T21:48:54.936Z,16.13
2019-05-15T21:51:28.114Z,15.53
2019-05-15T21:54:01.243Z,15.30
2019-05-15T21:56:32.076Z,13.97
2019-05-15T21:59:03.479Z,14.73
2019-05-15T22:01:34.915Z,14.98
2019-05-15T22:04:06.519Z,18.07
2019-05-15T22:06:38.463Z,16.60
2019-05-15T22:09:12.252Z,15.33
2019-05-15T22:11:43.774Z,14.43
2019-05-15T22:14:15.159Z,12.83
2019-05-15T22:16:46.831Z,12.05
2019-05-15T22:19:20.439Z,11.63
2019-05-15T22:21:51.392Z,11.97
2019-05-15T22:24:22.944Z,12.53
2019-05-15T22:26:54.574Z,12.25
2019-05-15T22:29:28.633Z,12.28
2019-05-15T22:31:59.629Z,12.55
2019-05-15T22:34:30.932Z,12.35
2019-05-15T22:37:02.182Z,22.13
2019-05-15T22:39:33.431Z,11.43
2019-05-15T22:42:04.843Z,11.68
2019-05-15T22:44:38.502Z,11.25
2019-05-15T22:47:10.170Z,11.03
2019-05-15T22:49:41.597Z,11.65
2019-05-15T22:52:13.172Z,10.80
2019-05-15T22:54:44.808Z,10.45
2019-05-15T22:57:16.463Z,10.32
2019-05-15T22:59:48.767Z,10.68
2019-05-15T23:02:19.980Z,10.03
2019-05-15T23:04:51.678Z,10.43
2019-05-15T23:07:22.957Z,10.78
2019-05-15T23:09:54.559Z,10.38
2019-05-15T23:12:26.036Z,11.22
2019-05-15T23:14:57.936Z,11.05
2019-05-15T23:17:29.704Z,10.55
2019-05-15T23:20:01.360Z,10.78
2019-05-15T23:22:33.084Z,10.63
2019-05-15T23:25:05.025Z,10.70
2019-05-15T23:27:38.170Z,11.18
2019-05-15T23:30:10.170Z,11.00
2019-05-15T23:32:41.653Z,11.63
2019-05-15T23:35:13.255Z,10.70
2019-05-15T23:37:44.747Z,11.10
2019-05-15T23:40:17.989Z,11.38
2019-05-15T23:42:50.166Z,10.00
2019-05-15T23:45:21.826Z,11.08
2019-05-15T23:47:53.359Z,10.98
2019-05-15T23:50:24.947Z,11.20
2019-05-15T23:52:58.395Z,10.57
2019-05-15T23:55:29.706Z,10.18
2019-05-15T23:58:01.545Z,10.85
